Time;durP1;ratioP1;P1;durP2;ratioP2;P2;SDS_P1;SDS_P2;PMS_P1;PMS_P2;Temp;Humidity;BMP_temperature;BMP_pressure;BME280_temperature;BME280_humidity;BME280_pressure;Samples;Min_cycle;Max_cycle;Signal;HPM_P1;HPM_P2
2023/04/16 00:02:15;;;;;;;60.70;39.00;;;;;;;;;;5119662;28;20512;-69
2023/04/16 00:04:41;;;;;;;52.63;38.20;;;;;;;;;;5114349;28;20446;-69
2023/04/16 00:07:08;;;;;;;55.30;38.83;;;;;;;;;;5121633;28;20498;-69
2023/04/16 00:09:34;;;;;;;54.90;38.00;;;;;;;;;;5114511;28;20446;-69
2023/04/16 00:12:01;;;;;;;58.20;39.30;;;;;;;;;;5109129;28;20466;-68
2023/04/16 00:14:29;;;;;;;56.00;38.17;;;;;;;;;;5121458;28;20434;-69
2023/04/16 00:16:55;;;;;;;54.37;38.93;;;;;;;;;;5111164;28;20510;-69
2023/04/16 00:19:22;;;;;;;51.40;37.20;;;;;;;;;;5111487;28;20641;-69
2023/04/16 00:21:48;;;;;;;50.00;37.60;;;;;;;;;;5121668;28;20482;-69
2023/04/16 00:24:15;;;;;;;55.07;37.40;;;;;;;;;;5121223;28;20477;-69
2023/04/16 00:26:43;;;;;;;54.60;37.83;;;;;;;;;;5130681;28;20824;-68
2023/04/16 00:29:09;;;;;;;48.23;36.83;;;;;;;;;;5129440;28;20446;-68
2023/04/16 00:31:37;;;;;;;49.50;36.23;;;;;;;;;;5131963;27;20482;-70
2023/04/16 00:34:03;;;;;;;51.50;39.33;;;;;;;;;;5134684;27;20441;-70
2023/04/16 00:36:30;;;;;;;51.33;37.70;;;;;;;;;;5133425;27;20537;-69
2023/04/16 00:38:56;;;;;;;60.23;39.57;;;;;;;;;;5134188;27;20846;-69
2023/04/16 00:41:23;;;;;;;51.13;36.77;;;;;;;;;;5123482;27;20482;-69
2023/04/16 00:43:50;;;;;;;50.20;39.67;;;;;;;;;;5125629;28;20445;-69
2023/04/16 00:46:16;;;;;;;54.00;39.27;;;;;;;;;;5117011;28;20470;-69
2023/04/16 00:48:44;;;;;;;53.03;38.17;;;;;;;;;;5130715;27;20445;-69
2023/04/16 00:51:11;;;;;;;55.90;37.90;;;;;;;;;;5122330;27;20506;-69
2023/04/16 00:53:37;;;;;;;53.80;39.10;;;;;;;;;;5121960;28;20499;-69
2023/04/16 00:56:05;;;;;;;53.63;39.07;;;;;;;;;;5121985;28;20506;-69
2023/04/16 00:58:32;;;;;;;54.03;39.10;;;;;;;;;;5120712;28;20481;-70
2023/04/16 01:00:59;;;;;;;52.27;38.53;;;;;;;;;;5120044;28;20531;-70
2023/04/16 01:03:30;;;;;;;58.33;39.83;;;;;;;;;;5129257;27;20509;-70
2023/04/16 01:05:58;;;;;;;54.80;39.00;;;;;;;;;;5119201;28;20573;-70
2023/04/16 01:08:25;;;;;;;53.07;41.40;;;;;;;;;;5097508;28;20472;-70
2023/04/16 01:10:51;;;;;;;55.10;39.17;;;;;;;;;;5115836;28;20479;-70
2023/04/16 01:13:18;;;;;;;60.37;40.37;;;;;;;;;;5095805;28;20473;-70
2023/04/16 01:15:44;;;;;;;53.67;40.37;;;;;;;;;;5117336;28;20475;-70
2023/04/16 01:18:14;;;;;;;53.57;40.17;;;;;;;;;;5097232;28;20487;-70
2023/04/16 01:20:42;;;;;;;56.47;40.70;;;;;;;;;;5109549;28;20480;-70
2023/04/16 01:23:09;;;;;;;62.73;42.03;;;;;;;;;;5119817;28;21061;-70
2023/04/16 01:25:35;;;;;;;56.97;40.00;;;;;;;;;;5121327;27;20466;-70
2023/04/16 01:28:01;;;;;;;54.60;40.23;;;;;;;;;;5110027;28;20493;-68
2023/04/16 01:30:28;;;;;;;54.70;39.40;;;;;;;;;;5097817;27;20476;-69
2023/04/16 01:32:54;;;;;;;51.20;40.47;;;;;;;;;;5119932;27;20883;-68
2023/04/16 01:35:21;;;;;;;61.80;42.57;;;;;;;;;;5131655;27;20521;-68
2023/04/16 01:37:49;;;;;;;57.07;41.10;;;;;;;;;;5140943;27;20568;-68
2023/04/16 01:40:16;;;;;;;55.57;40.30;;;;;;;;;;5125730;27;20470;-68
2023/04/16 01:42:42;;;;;;;55.40;42.20;;;;;;;;;;5128789;27;20529;-68
2023/04/16 01:45:09;;;;;;;52.63;40.60;;;;;;;;;;5130623;27;20965;-68
2023/04/16 01:47:35;;;;;;;51.57;40.70;;;;;;;;;;5126919;27;20533;-68
2023/04/16 01:50:03;;;;;;;52.00;38.60;;;;;;;;;;5119896;27;20518;-68
2023/04/16 01:52:29;;;;;;;58.10;39.63;;;;;;;;;;5118569;28;20558;-68
2023/04/16 01:54:57;;;;;;;51.53;35.77;;;;;;;;;;5124423;28;20482;-69
2023/04/16 01:57:23;;;;;;;47.87;37.23;;;;;;;;;;5124276;27;20509;-69
2023/04/16 01:59:50;;;;;;;52.80;39.23;;;;;;;;;;5113888;28;20838;-70
2023/04/16 02:02:16;;;;;;;50.00;37.40;;;;;;;;;;5100815;28;20503;-69
2023/04/16 02:04:44;;;;;;;51.80;38.77;;;;;;;;;;5103780;28;20451;-69
2023/04/16 02:07:10;;;;;;;52.13;38.70;;;;;;;;;;5108764;28;20553;-70
2023/04/16 02:09:37;;;;;;;52.13;35.83;;;;;;;;;;5117675;27;20489;-69
2023/04/16 02:12:12;;;;;;;47.63;37.93;;;;;;;;;;5123444;27;20549;-70
2023/04/16 02:14:38;;;;;;;53.40;37.83;;;;;;;;;;5124070;27;20449;-69
2023/04/16 02:17:04;;;;;;;54.40;39.00;;;;;;;;;;5111400;28;20562;-68
2023/04/16 02:19:31;;;;;;;50.53;37.20;;;;;;;;;;5118734;27;20511;-69
2023/04/16 02:21:57;;;;;;;49.07;36.60;;;;;;;;;;5120436;28;20491;-69
2023/04/16 02:24:24;;;;;;;47.30;37.30;;;;;;;;;;5121261;27;20463;-69
2023/04/16 02:26:50;;;;;;;48.77;36.87;;;;;;;;;;5124684;27;20500;-69
2023/04/16 02:29:18;;;;;;;46.20;36.37;;;;;;;;;;5119515;28;20461;-69
2023/04/16 02:31:45;;;;;;;48.63;35.93;;;;;;;;;;5118720;27;20470;-69
2023/04/16 02:34:11;;;;;;;46.50;36.67;;;;;;;;;;5116806;28;20802;-69
2023/04/16 02:36:38;;;;;;;48.27;37.60;;;;;;;;;;5123262;27;20474;-70
2023/04/16 02:39:05;;;;;;;48.50;36.90;;;;;;;;;;5116948;28;20510;-67
2023/04/16 02:41:31;;;;;;;56.27;35.83;;;;;;;;;;5122323;27;20501;-68
2023/04/16 02:43:57;;;;;;;46.73;37.80;;;;;;;;;;5121237;27;20550;-68
2023/04/16 02:46:25;;;;;;;44.40;34.93;;;;;;;;;;5127608;27;20513;-68
2023/04/16 02:48:52;;;;;;;46.20;34.53;;;;;;;;;;5128743;27;20517;-67
2023/04/16 02:51:18;;;;;;;47.60;36.70;;;;;;;;;;5117913;27;20478;-67
2023/04/16 02:53:45;;;;;;;42.83;35.07;;;;;;;;;;5123840;28;20486;-70
2023/04/16 02:56:11;;;;;;;48.00;36.30;;;;;;;;;;5120912;28;20480;-69
2023/04/16 02:58:38;;;;;;;48.20;35.70;;;;;;;;;;5114614;28;20532;-67
2023/04/16 03:01:04;;;;;;;48.00;35.83;;;;;;;;;;5120210;28;20570;-70
2023/04/16 03:03:32;;;;;;;49.37;37.00;;;;;;;;;;5120939;28;20842;-69
2023/04/16 03:05:59;;;;;;;44.33;35.23;;;;;;;;;;5109468;28;20483;-70
2023/04/16 03:08:26;;;;;;;47.97;36.33;;;;;;;;;;5115639;28;20451;-71
2023/04/16 03:10:52;;;;;;;49.70;37.67;;;;;;;;;;5118211;28;20503;-69
2023/04/16 03:13:19;;;;;;;46.30;37.40;;;;;;;;;;5114892;28;20511;-67
2023/04/16 03:15:47;;;;;;;44.60;37.10;;;;;;;;;;5119281;28;20499;-67
2023/04/16 03:18:14;;;;;;;45.00;36.43;;;;;;;;;;5112083;27;20804;-70
2023/04/16 03:20:42;;;;;;;47.10;36.47;;;;;;;;;;5115571;28;20848;-67
2023/04/16 03:23:08;;;;;;;45.83;37.07;;;;;;;;;;5104883;28;20454;-67
2023/04/16 03:25:35;;;;;;;48.20;40.07;;;;;;;;;;5132264;27;20508;-68
2023/04/16 03:28:02;;;;;;;49.40;36.40;;;;;;;;;;5119501;28;20853;-70
2023/04/16 03:30:28;;;;;;;44.47;34.30;;;;;;;;;;5115572;27;20518;-70
2023/04/16 03:32:55;;;;;;;50.60;35.10;;;;;;;;;;5124285;27;20465;-67
2023/04/16 03:35:21;;;;;;;49.87;37.70;;;;;;;;;;5123418;28;20470;-70
2023/04/16 03:37:50;;;;;;;43.83;37.03;;;;;;;;;;5114281;28;20561;-70
2023/04/16 03:40:17;;;;;;;49.53;37.93;;;;;;;;;;5114074;28;20455;-69
2023/04/16 03:42:43;;;;;;;46.03;36.77;;;;;;;;;;5110436;28;20446;-70
2023/04/16 03:45:10;;;;;;;63.47;41.00;;;;;;;;;;5110511;28;20481;-70
2023/04/16 03:47:36;;;;;;;48.27;39.03;;;;;;;;;;5111094;28;20838;-70
2023/04/16 03:50:03;;;;;;;52.47;40.70;;;;;;;;;;5118260;28;20533;-70
2023/04/16 03:52:29;;;;;;;52.90;39.37;;;;;;;;;;5098461;28;20502;-70
2023/04/16 03:54:57;;;;;;;50.77;39.07;;;;;;;;;;5093453;28;20477;-70
2023/04/16 03:57:23;;;;;;;53.63;40.40;;;;;;;;;;5093687;28;20503;-70
2023/04/16 03:59:50;;;;;;;52.43;38.57;;;;;;;;;;5101050;28;20503;-70
2023/04/16 04:02:16;;;;;;;57.43;41.10;;;;;;;;;;5079718;28;21118;-70
2023/04/16 04:04:42;;;;;;;50.13;37.20;;;;;;;;;;5098569;28;20470;-70
2023/04/16 04:07:09;;;;;;;50.63;37.23;;;;;;;;;;5121767;27;20541;-69
2023/04/16 04:09:35;;;;;;;48.07;36.70;;;;;;;;;;5132192;27;20460;-70
2023/04/16 04:12:03;;;;;;;47.53;36.27;;;;;;;;;;5112722;28;20549;-69
2023/04/16 04:14:30;;;;;;;48.87;37.47;;;;;;;;;;5108871;28;20725;-70
2023/04/16 04:16:56;;;;;;;48.70;37.53;;;;;;;;;;5119373;27;20520;-70
2023/04/16 04:19:22;;;;;;;50.00;38.40;;;;;;;;;;5130552;27;20553;-69
2023/04/16 04:21:49;;;;;;;49.50;37.83;;;;;;;;;;5123560;27;20524;-70
2023/04/16 04:24:15;;;;;;;52.67;37.33;;;;;;;;;;5119506;28;20487;-70
2023/04/16 04:26:41;;;;;;;49.33;38.70;;;;;;;;;;5125129;28;20508;-70
2023/04/16 04:29:09;;;;;;;52.40;38.10;;;;;;;;;;5128825;27;20914;-70
2023/04/16 04:31:36;;;;;;;49.77;37.97;;;;;;;;;;5131905;27;20502;-70
2023/04/16 04:34:02;;;;;;;54.37;38.30;;;;;;;;;;5123661;27;20442;-70
2023/04/16 04:36:28;;;;;;;55.93;39.40;;;;;;;;;;5112923;28;20521;-70
2023/04/16 04:38:55;;;;;;;53.30;39.67;;;;;;;;;;5105948;28;20566;-70
2023/04/16 04:41:21;;;;;;;51.27;38.17;;;;;;;;;;5101752;28;20499;-67
2023/04/16 04:43:48;;;;;;;57.50;40.37;;;;;;;;;;5109929;28;20490;-68
2023/04/16 04:46:15;;;;;;;50.50;38.77;;;;;;;;;;5104655;28;20475;-70
2023/04/16 04:48:42;;;;;;;54.77;38.10;;;;;;;;;;5098566;28;20519;-70
2023/04/16 04:51:08;;;;;;;50.90;39.60;;;;;;;;;;5095710;28;20533;-70
2023/04/16 04:53:35;;;;;;;46.87;35.87;;;;;;;;;;5107294;28;20483;-70
2023/04/16 04:56:01;;;;;;;48.30;38.80;;;;;;;;;;5109863;27;21778;-70
2023/04/16 04:58:28;;;;;;;48.57;38.67;;;;;;;;;;5127006;27;20521;-70
2023/04/16 05:00:54;;;;;;;45.33;37.60;;;;;;;;;;5121771;27;20994;-70
2023/04/16 05:03:22;;;;;;;58.13;40.23;;;;;;;;;;5093914;28;20490;-70
2023/04/16 05:05:48;;;;;;;55.33;39.53;;;;;;;;;;5104016;28;20502;-70
2023/04/16 05:08:14;;;;;;;51.77;38.37;;;;;;;;;;5103548;28;20479;-71
2023/04/16 05:10:41;;;;;;;52.57;37.47;;;;;;;;;;5110035;27;20493;-70
2023/04/16 05:13:07;;;;;;;59.80;39.97;;;;;;;;;;5128405;27;20528;-70
2023/04/16 05:15:34;;;;;;;61.23;39.63;;;;;;;;;;5118329;28;20500;-70
2023/04/16 05:18:00;;;;;;;54.63;39.13;;;;;;;;;;5110904;28;20457;-70
2023/04/16 05:20:28;;;;;;;54.00;40.50;;;;;;;;;;5122287;27;21043;-71
2023/04/16 05:22:55;;;;;;;56.17;39.50;;;;;;;;;;5119101;28;20540;-70
2023/04/16 05:25:21;;;;;;;55.90;40.13;;;;;;;;;;5109394;28;20457;-70
2023/04/16 05:27:47;;;;;;;52.90;40.87;;;;;;;;;;5124087;27;20465;-70
2023/04/16 05:30:14;;;;;;;56.33;40.20;;;;;;;;;;5128151;27;20485;-70
2023/04/16 05:32:40;;;;;;;56.17;39.37;;;;;;;;;;5119409;28;20472;-70
2023/04/16 05:35:08;;;;;;;57.57;40.50;;;;;;;;;;5125475;27;20447;-70
2023/04/16 05:37:36;;;;;;;57.23;38.43;;;;;;;;;;5119813;27;20454;-70
2023/04/16 05:40:02;;;;;;;54.13;39.93;;;;;;;;;;5122722;28;20961;-71
2023/04/16 05:42:29;;;;;;;56.60;40.87;;;;;;;;;;5124971;27;20482;-72
2023/04/16 05:44:55;;;;;;;51.93;37.80;;;;;;;;;;5121936;27;20497;-71
2023/04/16 05:47:22;;;;;;;54.27;39.40;;;;;;;;;;5114323;28;20513;-71
2023/04/16 05:49:48;;;;;;;55.00;39.83;;;;;;;;;;5119628;28;20466;-73
2023/04/16 05:52:14;;;;;;;54.00;39.97;;;;;;;;;;5094063;28;20546;-68
2023/04/16 05:54:42;;;;;;;53.97;41.50;;;;;;;;;;5104517;28;20457;-69
2023/04/16 05:57:09;;;;;;;51.07;39.80;;;;;;;;;;5104435;28;21025;-69
2023/04/16 05:59:35;;;;;;;54.10;39.63;;;;;;;;;;5096442;28;20521;-72
2023/04/16 06:02:01;;;;;;;51.67;39.43;;;;;;;;;;5113760;27;20507;-72
2023/04/16 06:04:29;;;;;;;60.90;40.23;;;;;;;;;;5123357;27;20565;-71
2023/04/16 06:06:56;;;;;;;53.33;38.93;;;;;;;;;;5104755;28;20493;-71
2023/04/16 06:09:23;;;;;;;57.93;40.00;;;;;;;;;;5102939;28;20489;-69
2023/04/16 06:11:51;;;;;;;56.47;39.30;;;;;;;;;;5100701;28;20494;-69
2023/04/16 06:14:17;;;;;;;56.57;39.70;;;;;;;;;;5101306;28;20482;-69
2023/04/16 06:16:44;;;;;;;51.53;36.90;;;;;;;;;;5101890;28;20520;-69
2023/04/16 06:19:10;;;;;;;52.70;37.40;;;;;;;;;;5099174;28;20491;-68
2023/04/16 06:21:37;;;;;;;46.40;36.30;;;;;;;;;;5101314;28;20514;-69
2023/04/16 06:24:04;;;;;;;50.37;39.20;;;;;;;;;;5101390;28;20455;-69
2023/04/16 06:26:30;;;;;;;47.50;37.67;;;;;;;;;;5100736;28;20507;-69
2023/04/16 06:28:58;;;;;;;52.17;35.73;;;;;;;;;;5101949;28;20475;-69
2023/04/16 06:31:25;;;;;;;48.73;37.63;;;;;;;;;;5100052;28;20947;-69
2023/04/16 06:33:51;;;;;;;51.97;38.57;;;;;;;;;;5101688;28;20503;-69
2023/04/16 06:36:18;;;;;;;49.37;35.40;;;;;;;;;;5099056;28;21233;-69
2023/04/16 06:38:44;;;;;;;45.00;35.10;;;;;;;;;;5097251;28;20811;-74
2023/04/16 06:41:11;;;;;;;52.47;38.53;;;;;;;;;;5099557;28;20542;-72
2023/04/16 06:43:37;;;;;;;47.97;37.03;;;;;;;;;;5098697;28;20558;-73
2023/04/16 06:46:05;;;;;;;45.50;35.80;;;;;;;;;;5094415;28;21014;-73
2023/04/16 06:48:31;;;;;;;44.97;34.40;;;;;;;;;;5103435;28;20466;-73
2023/04/16 06:50:58;;;;;;;47.87;36.97;;;;;;;;;;5103567;28;20471;-73
2023/04/16 06:53:24;;;;;;;46.70;33.37;;;;;;;;;;5089780;28;20483;-73
2023/04/16 06:55:50;;;;;;;47.87;36.07;;;;;;;;;;5096657;28;21014;-73
2023/04/16 06:58:17;;;;;;;41.73;32.57;;;;;;;;;;5090725;28;20494;-73
2023/04/16 07:00:43;;;;;;;45.43;34.67;;;;;;;;;;5109610;27;20520;-74
2023/04/16 07:03:11;;;;;;;41.93;32.50;;;;;;;;;;5123495;27;20482;-74
2023/04/16 07:05:37;;;;;;;45.63;33.97;;;;;;;;;;5109369;28;20474;-74
2023/04/16 07:08:05;;;;;;;44.70;33.47;;;;;;;;;;5095405;28;20518;-74
2023/04/16 07:10:32;;;;;;;42.23;33.00;;;;;;;;;;5091592;28;20534;-74
2023/04/16 07:13:00;;;;;;;41.43;31.57;;;;;;;;;;5097123;28;20482;-74
2023/04/16 07:15:26;;;;;;;42.27;31.40;;;;;;;;;;5110262;28;20470;-74
2023/04/16 07:17:55;;;;;;;42.80;32.00;;;;;;;;;;5123912;27;20492;-72
2023/04/16 07:20:23;;;;;;;42.33;31.67;;;;;;;;;;5125098;27;20494;-74
2023/04/16 07:22:50;;;;;;;42.43;33.23;;;;;;;;;;5115040;28;20454;-74
2023/04/16 07:25:16;;;;;;;40.93;30.97;;;;;;;;;;5121703;27;20470;-74
2023/04/16 07:27:42;;;;;;;47.20;30.07;;;;;;;;;;5121769;28;20486;-74
2023/04/16 07:30:09;;;;;;;39.50;31.47;;;;;;;;;;5118081;28;20450;-74
2023/04/16 07:32:36;;;;;;;39.13;30.40;;;;;;;;;;5109259;28;20943;-74
2023/04/16 07:35:03;;;;;;;43.77;31.30;;;;;;;;;;5117148;28;20473;-73
2023/04/16 07:37:31;;;;;;;40.33;30.40;;;;;;;;;;5121515;28;20556;-73
2023/04/16 07:39:59;;;;;;;41.67;31.77;;;;;;;;;;5116265;28;20503;-73
2023/04/16 07:42:25;;;;;;;43.07;30.90;;;;;;;;;;5108817;28;20507;-74
2023/04/16 07:44:52;;;;;;;50.17;32.03;;;;;;;;;;5117208;28;20470;-73
2023/04/16 07:47:18;;;;;;;40.03;32.00;;;;;;;;;;5120357;28;20510;-74
2023/04/16 07:49:45;;;;;;;39.53;30.03;;;;;;;;;;5112612;28;20529;-72
2023/04/16 07:52:11;;;;;;;37.60;28.73;;;;;;;;;;5124790;28;20481;-73
2023/04/16 07:54:39;;;;;;;42.20;28.90;;;;;;;;;;5106546;28;20462;-71
2023/04/16 07:57:06;;;;;;;36.20;27.73;;;;;;;;;;5129686;27;20516;-73
2023/04/16 07:59:32;;;;;;;38.10;29.13;;;;;;;;;;5119050;28;20525;-75
2023/04/16 08:01:58;;;;;;;34.80;27.07;;;;;;;;;;5117392;28;20506;-70
2023/04/16 08:04:25;;;;;;;37.00;28.97;;;;;;;;;;5126001;28;20927;-75
2023/04/16 08:06:51;;;;;;;37.63;29.27;;;;;;;;;;5106463;28;20513;-76
2023/04/16 08:09:18;;;;;;;38.47;29.13;;;;;;;;;;5127711;28;20454;-77
2023/04/16 08:11:48;;;;;;;38.03;31.00;;;;;;;;;;5122145;28;20472;-76
2023/04/16 08:14:14;;;;;;;42.87;30.60;;;;;;;;;;5121409;28;20495;-75
2023/04/16 08:16:40;;;;;;;39.87;30.83;;;;;;;;;;5105788;27;20486;-74
2023/04/16 08:19:07;;;;;;;36.07;29.70;;;;;;;;;;5108039;28;20496;-75
2023/04/16 08:21:33;;;;;;;37.70;30.50;;;;;;;;;;5119441;28;20478;-75
2023/04/16 08:24:00;;;;;;;35.87;27.50;;;;;;;;;;5115346;28;20451;-75
2023/04/16 08:26:26;;;;;;;36.60;28.37;;;;;;;;;;5116296;28;20478;-75
2023/04/16 08:28:54;;;;;;;38.00;28.40;;;;;;;;;;5112986;28;20487;-75
2023/04/16 08:31:20;;;;;;;37.97;28.57;;;;;;;;;;5119647;28;20973;-76
2023/04/16 08:33:47;;;;;;;38.53;28.63;;;;;;;;;;5118058;28;20465;-74
2023/04/16 08:36:16;;;;;;;35.13;27.23;;;;;;;;;;5117577;28;20508;-74
2023/04/16 08:38:42;;;;;;;34.60;26.67;;;;;;;;;;5123701;28;20475;-74
2023/04/16 08:41:11;;;;;;;30.20;26.57;;;;;;;;;;5121478;27;21140;-77
2023/04/16 08:43:39;;;;;;;31.07;26.73;;;;;;;;;;5130715;28;20453;-76
2023/04/16 08:46:07;;;;;;;34.87;25.60;;;;;;;;;;5123503;28;20547;-76
2023/04/16 08:48:34;;;;;;;31.03;26.57;;;;;;;;;;5116300;28;20485;-75
2023/04/16 08:51:01;;;;;;;36.87;28.20;;;;;;;;;;5110594;28;21053;-75
2023/04/16 08:53:32;;;;;;;34.47;26.10;;;;;;;;;;5103741;28;20443;-75
2023/04/16 08:55:59;;;;;;;29.70;25.20;;;;;;;;;;5091937;28;20511;-74
2023/04/16 08:58:29;;;;;;;31.30;26.20;;;;;;;;;;5096216;28;20469;-73
2023/04/16 09:00:56;;;;;;;34.73;28.53;;;;;;;;;;5112575;27;21064;-74
2023/04/16 09:03:24;;;;;;;37.10;27.73;;;;;;;;;;5119839;27;20800;-74
2023/04/16 09:05:51;;;;;;;33.00;27.07;;;;;;;;;;5118149;28;20537;-74
2023/04/16 09:08:18;;;;;;;32.20;27.30;;;;;;;;;;5117668;28;20530;-74
2023/04/16 09:10:44;;;;;;;33.87;26.87;;;;;;;;;;5118739;27;20479;-74
2023/04/16 09:13:12;;;;;;;31.10;26.63;;;;;;;;;;5099392;28;20447;-78
2023/04/16 09:15:39;;;;;;;30.57;25.20;;;;;;;;;;5096767;27;21028;-74
2023/04/16 09:18:05;;;;;;;32.47;25.33;;;;;;;;;;5131242;27;20450;-75
2023/04/16 09:20:33;;;;;;;31.67;25.57;;;;;;;;;;5121156;28;20549;-74
2023/04/16 09:23:00;;;;;;;31.50;25.20;;;;;;;;;;5120308;28;21324;-74
2023/04/16 09:25:26;;;;;;;31.20;26.47;;;;;;;;;;5134008;27;20453;-73
2023/04/16 09:27:53;;;;;;;33.57;24.97;;;;;;;;;;5130492;27;20454;-74
2023/04/16 09:30:23;;;;;;;34.20;28.27;;;;;;;;;;5117767;27;20451;-74
2023/04/16 09:32:50;;;;;;;34.53;27.30;;;;;;;;;;5132622;27;20457;-74
2023/04/16 09:35:18;;;;;;;32.10;26.47;;;;;;;;;;5133230;27;20482;-74
2023/04/16 09:37:54;;;;;;;35.23;27.97;;;;;;;;;;5114206;28;20458;-75
2023/04/16 09:40:24;;;;;;;29.80;25.27;;;;;;;;;;5103807;28;20483;-74
2023/04/16 09:42:52;;;;;;;34.97;26.97;;;;;;;;;;5123909;28;20458;-75
2023/04/16 09:45:18;;;;;;;32.80;25.37;;;;;;;;;;5121269;28;20439;-75
2023/04/16 09:47:45;;;;;;;32.90;26.77;;;;;;;;;;5122001;27;20466;-74
2023/04/16 09:50:15;;;;;;;28.87;25.77;;;;;;;;;;5123056;27;20538;-75
2023/04/16 09:52:43;;;;;;;30.30;24.50;;;;;;;;;;5128028;27;20438;-75
2023/04/16 09:55:11;;;;;;;35.93;25.27;;;;;;;;;;5123246;27;20479;-75
2023/04/16 09:57:37;;;;;;;33.70;25.97;;;;;;;;;;5120439;27;21036;-74
2023/04/16 10:00:05;;;;;;;29.80;24.70;;;;;;;;;;5125946;27;20539;-74
2023/04/16 10:02:33;;;;;;;35.60;23.90;;;;;;;;;;5119852;27;20494;-74
2023/04/16 10:05:01;;;;;;;29.30;23.87;;;;;;;;;;5108226;28;20499;-75
2023/04/16 10:07:28;;;;;;;29.10;24.60;;;;;;;;;;5123138;27;21119;-74
2023/04/16 10:09:55;;;;;;;29.10;23.00;;;;;;;;;;5125424;27;20614;-75
2023/04/16 10:12:22;;;;;;;29.47;24.03;;;;;;;;;;5109312;27;20947;-74
2023/04/16 10:14:49;;;;;;;28.43;23.70;;;;;;;;;;5119059;27;20452;-74
2023/04/16 10:17:15;;;;;;;32.23;22.87;;;;;;;;;;5120063;27;20500;-75
2023/04/16 10:19:42;;;;;;;32.27;22.40;;;;;;;;;;5124258;27;20482;-75
2023/04/16 10:22:08;;;;;;;31.17;25.57;;;;;;;;;;5110025;28;20478;-75
2023/04/16 10:24:35;;;;;;;32.43;23.77;;;;;;;;;;5118188;28;20594;-74
2023/04/16 10:27:01;;;;;;;35.33;23.47;;;;;;;;;;5095056;28;20543;-75
2023/04/16 10:29:31;;;;;;;28.47;20.97;;;;;;;;;;5093692;28;20991;-74
2023/04/16 10:31:58;;;;;;;27.10;21.80;;;;;;;;;;5112380;28;20484;-74
2023/04/16 10:34:25;;;;;;;27.87;22.30;;;;;;;;;;5122087;27;20452;-74
2023/04/16 10:36:52;;;;;;;24.73;20.90;;;;;;;;;;5108661;28;20482;-75
2023/04/16 10:39:20;;;;;;;31.07;22.77;;;;;;;;;;5101738;28;20523;-75
2023/04/16 10:41:46;;;;;;;31.77;22.53;;;;;;;;;;5120487;27;20731;-75
2023/04/16 10:44:13;;;;;;;27.30;21.10;;;;;;;;;;5120035;27;20500;-75
2023/04/16 10:46:42;;;;;;;29.20;22.93;;;;;;;;;;5121970;28;20512;-75
2023/04/16 10:49:15;;;;;;;28.97;23.50;;;;;;;;;;5119984;28;20486;-75
2023/04/16 10:51:41;;;;;;;27.93;21.40;;;;;;;;;;5121380;28;20488;-75
2023/04/16 10:54:23;;;;;;;30.23;23.40;;;;;;;;;;5122440;27;20479;-75
2023/04/16 10:56:50;;;;;;;30.53;23.60;;;;;;;;;;5112057;28;20478;-75
2023/04/16 10:59:18;;;;;;;30.93;23.70;;;;;;;;;;5113104;28;20549;-75
2023/04/16 11:01:47;;;;;;;30.43;24.03;;;;;;;;;;5120671;28;20478;-75
2023/04/16 11:04:30;;;;;;;33.97;24.17;;;;;;;;;;5122666;27;20485;-74
2023/04/16 11:07:00;;;;;;;32.83;25.93;;;;;;;;;;5115255;27;20477;-75
2023/04/16 11:09:44;;;;;;;30.27;23.60;;;;;;;;;;5116723;27;20451;-75
2023/04/16 11:12:11;;;;;;;33.10;25.33;;;;;;;;;;5116888;27;20923;-75
2023/04/16 11:14:38;;;;;;;34.20;27.00;;;;;;;;;;5119146;28;21251;-74
2023/04/16 11:17:06;;;;;;;35.10;27.10;;;;;;;;;;5124140;27;20473;-75
2023/04/16 11:19:33;;;;;;;34.03;26.60;;;;;;;;;;5116327;28;20484;-75
2023/04/16 11:22:00;;;;;;;33.93;27.80;;;;;;;;;;5121325;27;20284;-74
2023/04/16 11:24:29;;;;;;;35.03;28.20;;;;;;;;;;5122885;27;20474;-75
2023/04/16 11:26:55;;;;;;;32.33;27.60;;;;;;;;;;5115839;27;20502;-75
2023/04/16 11:29:22;;;;;;;33.03;26.90;;;;;;;;;;5122132;27;20454;-77
2023/04/16 11:31:50;;;;;;;32.60;27.43;;;;;;;;;;5124486;27;20501;-74
2023/04/16 11:34:18;;;;;;;36.93;28.83;;;;;;;;;;5123831;28;20890;-74
2023/04/16 11:36:44;;;;;;;33.03;26.67;;;;;;;;;;5116854;27;20531;-75
2023/04/16 11:39:11;;;;;;;32.70;25.97;;;;;;;;;;5118252;28;20458;-73
2023/04/16 11:41:42;;;;;;;32.47;25.03;;;;;;;;;;5123381;27;20512;-72
2023/04/16 11:44:18;;;;;;;30.53;26.13;;;;;;;;;;5120750;28;20489;-67
2023/04/16 11:46:45;;;;;;;32.80;25.07;;;;;;;;;;5119086;28;20469;-69
2023/04/16 11:49:11;;;;;;;32.67;25.67;;;;;;;;;;5113364;28;20454;-69
2023/04/16 11:51:43;;;;;;;33.83;26.30;;;;;;;;;;5125861;28;20505;-69
2023/04/16 11:54:10;;;;;;;31.47;25.50;;;;;;;;;;5119153;28;20562;-69
2023/04/16 11:56:37;;;;;;;30.80;24.80;;;;;;;;;;5111218;28;20500;-69
2023/04/16 11:59:10;;;;;;;32.43;25.37;;;;;;;;;;5101249;28;20451;-69
2023/04/16 12:01:37;;;;;;;32.50;25.23;;;;;;;;;;5112386;28;20478;-69
2023/04/16 12:04:03;;;;;;;28.43;24.10;;;;;;;;;;5115705;28;20474;-69
2023/04/16 12:06:31;;;;;;;31.47;24.40;;;;;;;;;;5118757;28;20484;-69
2023/04/16 12:08:58;;;;;;;31.10;25.47;;;;;;;;;;5120536;28;20492;-69
2023/04/16 12:11:37;;;;;;;30.80;23.90;;;;;;;;;;5122500;28;20553;-69
2023/04/16 12:14:07;;;;;;;25.40;22.67;;;;;;;;;;5109957;28;20969;-70
2023/04/16 12:16:34;;;;;;;28.27;23.17;;;;;;;;;;5117192;28;20476;-69
2023/04/16 12:19:02;;;;;;;30.10;24.03;;;;;;;;;;5124995;28;20453;-69
2023/04/16 12:21:38;;;;;;;30.33;25.00;;;;;;;;;;5117655;27;20967;-69
2023/04/16 12:24:07;;;;;;;28.03;23.60;;;;;;;;;;5120653;28;20457;-69
2023/04/16 12:26:40;;;;;;;36.03;24.70;;;;;;;;;;5100300;28;20894;-69
2023/04/16 12:29:16;;;;;;;30.40;23.50;;;;;;;;;;5102407;28;20479;-72
2023/04/16 12:31:43;;;;;;;30.27;24.80;;;;;;;;;;5110244;28;20714;-69
2023/04/16 12:34:10;;;;;;;30.57;25.00;;;;;;;;;;5116048;28;20458;-70
2023/04/16 12:36:36;;;;;;;30.97;25.13;;;;;;;;;;5105472;28;20904;-70
2023/04/16 12:39:03;;;;;;;29.93;25.60;;;;;;;;;;5111717;28;20458;-70
2023/04/16 12:41:31;;;;;;;32.83;25.03;;;;;;;;;;5098985;28;20482;-70
2023/04/16 12:44:10;;;;;;;32.63;25.80;;;;;;;;;;5088508;28;20482;-69
2023/04/16 12:46:37;;;;;;;28.40;25.27;;;;;;;;;;5090311;28;20475;-70
2023/04/16 12:49:04;;;;;;;33.17;27.20;;;;;;;;;;5101106;28;20531;-70
2023/04/16 12:51:31;;;;;;;35.33;25.90;;;;;;;;;;5103188;28;20917;-69
2023/04/16 12:53:57;;;;;;;28.97;24.33;;;;;;;;;;5097146;28;20493;-70
2023/04/16 12:56:24;;;;;;;29.03;24.63;;;;;;;;;;5099117;28;20493;-70
2023/04/16 12:58:52;;;;;;;27.80;23.50;;;;;;;;;;5103383;28;21293;-69
2023/04/16 13:01:18;;;;;;;27.03;23.87;;;;;;;;;;5099283;28;20474;-69
2023/04/16 13:03:45;;;;;;;29.60;23.50;;;;;;;;;;5103243;28;20510;-69
2023/04/16 13:06:12;;;;;;;30.33;25.57;;;;;;;;;;5108107;27;20486;-69
2023/04/16 13:08:38;;;;;;;31.83;23.97;;;;;;;;;;5116073;28;20478;-69
2023/04/16 13:11:05;;;;;;;35.20;25.10;;;;;;;;;;5117934;28;20473;-70
2023/04/16 13:13:31;;;;;;;29.00;22.00;;;;;;;;;;5117798;28;20458;-78
2023/04/16 13:15:59;;;;;;;28.30;23.43;;;;;;;;;;5118243;28;20470;-71
2023/04/16 13:18:26;;;;;;;28.80;24.60;;;;;;;;;;5118780;28;20488;-69
2023/04/16 13:20:53;;;;;;;27.17;23.57;;;;;;;;;;5114945;28;20515;-69
2023/04/16 13:23:19;;;;;;;28.20;23.30;;;;;;;;;;5120200;28;20871;-69
2023/04/16 13:25:46;;;;;;;35.77;24.00;;;;;;;;;;5118129;28;20500;-70
2023/04/16 13:28:12;;;;;;;27.70;24.37;;;;;;;;;;5115403;27;20482;-70
2023/04/16 13:30:39;;;;;;;27.77;23.67;;;;;;;;;;5115037;28;20530;-70
2023/04/16 13:33:07;;;;;;;29.47;24.87;;;;;;;;;;5124059;27;20458;-70
2023/04/16 13:35:34;;;;;;;27.30;22.87;;;;;;;;;;5123849;27;20500;-70
2023/04/16 13:38:01;;;;;;;26.90;22.90;;;;;;;;;;5122510;28;20456;-69
2023/04/16 13:40:27;;;;;;;27.00;23.17;;;;;;;;;;5114107;28;20535;-69
2023/04/16 13:42:53;;;;;;;29.57;22.77;;;;;;;;;;5124390;27;20458;-69
2023/04/16 13:45:20;;;;;;;27.43;24.50;;;;;;;;;;5123850;27;20478;-69
2023/04/16 13:47:46;;;;;;;27.43;22.07;;;;;;;;;;5122396;28;20454;-68
2023/04/16 13:50:14;;;;;;;29.23;22.57;;;;;;;;;;5122531;28;20461;-69
2023/04/16 13:52:41;;;;;;;26.80;23.10;;;;;;;;;;5112193;27;20448;-68
2023/04/16 13:55:08;;;;;;;26.63;22.13;;;;;;;;;;5117779;27;20442;-68
2023/04/16 13:57:35;;;;;;;23.80;21.27;;;;;;;;;;5117371;27;20533;-68
2023/04/16 14:00:02;;;;;;;28.33;22.53;;;;;;;;;;5119041;28;20523;-68
2023/04/16 14:02:29;;;;;;;26.27;22.70;;;;;;;;;;5116146;27;20514;-68
2023/04/16 14:04:56;;;;;;;28.43;23.80;;;;;;;;;;5125940;27;20457;-68
2023/04/16 14:07:25;;;;;;;24.90;22.30;;;;;;;;;;5120181;28;20560;-68
2023/04/16 14:09:55;;;;;;;28.47;23.10;;;;;;;;;;5114086;28;20464;-68
2023/04/16 14:12:21;;;;;;;27.87;24.37;;;;;;;;;;5114138;28;20478;-68
2023/04/16 14:14:48;;;;;;;28.17;23.23;;;;;;;;;;5111831;28;20470;-68
2023/04/16 14:17:14;;;;;;;27.80;23.03;;;;;;;;;;5121059;27;20508;-68